Time;durP1;ratioP1;P1;durP2;ratioP2;P2;SDS_P1;SDS_P2;PMS_P1;PMS_P2;Temp;Humidity;BMP_temperature;BMP_pressure;BME280_temperature;BME280_humidity;BME280_pressure;Samples;Min_cycle;Max_cycle;Signal;HPM_P1;HPM_P2
2024/04/03 00:01:52;;;;;;;0.80;0.80;;;;;;;;;;6068387;23;20174;-83
2024/04/03 00:04:18;;;;;;;2.73;1.00;;;;;;;;;;6044427;23;20161;-85
2024/04/03 00:06:44;;;;;;;2.53;1.00;;;;;;;;;;6044102;23;20255;-84
2024/04/03 00:09:14;;;;;;;2.07;0.90;;;;;;;;;;6067642;23;20203;-83
2024/04/03 00:11:40;;;;;;;1.90;1.00;;;;;;;;;;6020603;23;20176;-84
2024/04/03 00:14:09;;;;;;;1.63;1.03;;;;;;;;;;6044657;23;20164;-85
2024/04/03 00:16:35;;;;;;;1.20;0.87;;;;;;;;;;6020310;23;20251;-84
2024/04/03 00:19:01;;;;;;;1.10;0.90;;;;;;;;;;6020806;23;20176;-83
2024/04/03 00:21:26;;;;;;;1.10;0.90;;;;;;;;;;6020491;23;20615;-81
2024/04/03 00:23:54;;;;;;;1.73;0.80;;;;;;;;;;6043591;23;20169;-84
2024/04/03 00:26:20;;;;;;;1.27;0.90;;;;;;;;;;6044082;23;20271;-83
2024/04/03 00:28:46;;;;;;;2.03;0.90;;;;;;;;;;6020950;23;20173;-84
2024/04/03 00:31:12;;;;;;;2.00;0.90;;;;;;;;;;6020629;23;20195;-82
2024/04/03 00:33:38;;;;;;;1.30;0.90;;;;;;;;;;6020701;23;20266;-83
2024/04/03 00:36:04;;;;;;;0.97;0.80;;;;;;;;;;6068060;23;20290;-84
2024/04/03 00:38:31;;;;;;;1.00;0.80;;;;;;;;;;6068622;23;20165;-83
2024/04/03 00:40:59;;;;;;;1.67;0.90;;;;;;;;;;6044382;23;20222;-84
2024/04/03 00:43:25;;;;;;;1.13;0.83;;;;;;;;;;6044607;23;20172;-84
2024/04/03 00:45:55;;;;;;;1.20;0.90;;;;;;;;;;6044574;23;20191;-83
2024/04/03 00:48:21;;;;;;;2.03;0.90;;;;;;;;;;6068172;23;20169;-86
2024/04/03 00:50:48;;;;;;;1.40;1.00;;;;;;;;;;6043889;23;20311;-84
2024/04/03 00:53:17;;;;;;;1.40;0.90;;;;;;;;;;6045179;23;20164;-85
2024/04/03 00:55:42;;;;;;;2.67;0.90;;;;;;;;;;6020445;23;20195;-84
2024/04/03 00:58:09;;;;;;;1.53;0.90;;;;;;;;;;6044279;23;20171;-84
2024/04/03 01:00:35;;;;;;;2.90;1.30;;;;;;;;;;6067766;23;20499;-82
2024/04/03 01:03:03;;;;;;;1.83;1.00;;;;;;;;;;6044012;23;20167;-84
2024/04/03 01:05:32;;;;;;;1.30;1.00;;;;;;;;;;6020038;23;20894;-84
2024/04/03 01:07:58;;;;;;;1.60;0.90;;;;;;;;;;6020430;23;20164;-83
2024/04/03 01:10:28;;;;;;;2.03;1.13;;;;;;;;;;6044194;23;20197;-84
2024/04/03 01:12:55;;;;;;;1.67;0.83;;;;;;;;;;6044083;23;20168;-82
2024/04/03 01:15:21;;;;;;;1.93;0.90;;;;;;;;;;6020413;23;20172;-85
2024/04/03 01:17:47;;;;;;;2.20;0.90;;;;;;;;;;6044011;23;20181;-83
2024/04/03 01:20:13;;;;;;;0.93;0.83;;;;;;;;;;6044315;23;20183;-84
2024/04/03 01:22:40;;;;;;;2.20;0.90;;;;;;;;;;6022830;23;20172;-82
2024/04/03 01:25:09;;;;;;;1.40;0.87;;;;;;;;;;6046077;23;20191;-83
2024/04/03 01:27:37;;;;;;;1.20;0.90;;;;;;;;;;6070027;23;20727;-86
2024/04/03 01:30:03;;;;;;;1.93;1.10;;;;;;;;;;6046112;23;20174;-85
2024/04/03 01:32:29;;;;;;;0.93;0.87;;;;;;;;;;6045891;23;20176;-87
2024/04/03 01:34:56;;;;;;;2.43;1.00;;;;;;;;;;6046442;23;20184;-87
2024/04/03 01:37:22;;;;;;;1.63;0.90;;;;;;;;;;6017923;23;20216;-87
2024/04/03 01:39:48;;;;;;;2.20;1.10;;;;;;;;;;6041582;23;20169;-85
2024/04/03 01:42:20;;;;;;;1.70;1.07;;;;;;;;;;6017898;23;20712;-82
2024/04/03 01:44:47;;;;;;;1.20;1.10;;;;;;;;;;6041393;23;20185;-85
2024/04/03 01:47:14;;;;;;;1.57;0.90;;;;;;;;;;6040752;23;20244;-82
2024/04/03 01:49:43;;;;;;;1.50;1.00;;;;;;;;;;6041465;23;20179;-86
2024/04/03 01:52:09;;;;;;;6.70;1.27;;;;;;;;;;6017294;23;20174;-83
2024/04/03 01:54:36;;;;;;;1.83;0.97;;;;;;;;;;6065005;23;20197;-86
2024/04/03 01:57:02;;;;;;;0.90;0.90;;;;;;;;;;6017035;23;20164;-86
2024/04/03 01:59:29;;;;;;;1.93;0.90;;;;;;;;;;6041235;23;20176;-84
2024/04/03 02:01:55;;;;;;;1.23;0.90;;;;;;;;;;6017212;23;20169;-85
2024/04/03 02:04:25;;;;;;;1.57;0.90;;;;;;;;;;6041493;23;20200;-85
2024/04/03 02:06:51;;;;;;;1.17;0.80;;;;;;;;;;6064397;23;20173;-83
2024/04/03 02:09:17;;;;;;;1.20;0.90;;;;;;;;;;6017457;23;20185;-87
2024/04/03 02:11:43;;;;;;;1.40;1.00;;;;;;;;;;6064846;23;20173;-84
2024/04/03 02:14:12;;;;;;;1.03;0.93;;;;;;;;;;6041316;23;20170;-83
2024/04/03 02:16:47;;;;;;;1.40;1.00;;;;;;;;;;6064668;23;20169;-83
2024/04/03 02:19:14;;;;;;;2.43;1.00;;;;;;;;;;6064387;23;20645;-83
2024/04/03 02:21:41;;;;;;;1.07;0.80;;;;;;;;;;6016858;23;20196;-85
2024/04/03 02:24:07;;;;;;;0.93;0.80;;;;;;;;;;6064670;23;20177;-84
2024/04/03 02:26:33;;;;;;;2.97;1.00;;;;;;;;;;6040339;23;20711;-84
2024/04/03 02:28:59;;;;;;;1.50;0.90;;;;;;;;;;6041369;23;20249;-84
2024/04/03 02:31:26;;;;;;;1.80;1.07;;;;;;;;;;6064072;23;20180;-84
2024/04/03 02:33:52;;;;;;;1.17;0.93;;;;;;;;;;6040563;23;20169;-86
2024/04/03 02:36:19;;;;;;;1.00;0.70;;;;;;;;;;6016711;23;20303;-87
2024/04/03 02:38:45;;;;;;;2.17;0.90;;;;;;;;;;6064467;23;20177;-84
2024/04/03 02:41:13;;;;;;;2.57;0.90;;;;;;;;;;6040634;23;20699;-84
2024/04/03 02:43:40;;;;;;;0.80;0.80;;;;;;;;;;6040631;23;20197;-84
2024/04/03 02:46:08;;;;;;;1.00;0.80;;;;;;;;;;6040726;23;20184;-84
2024/04/03 02:48:34;;;;;;;0.83;0.77;;;;;;;;;;6040706;23;20260;-86
2024/04/03 02:51:03;;;;;;;1.00;0.90;;;;;;;;;;6040754;23;20542;-84
2024/04/03 02:53:30;;;;;;;1.40;0.83;;;;;;;;;;6016793;23;20184;-83
2024/04/03 02:56:03;;;;;;;1.00;0.80;;;;;;;;;;6040663;23;20541;-83
2024/04/03 02:58:30;;;;;;;1.87;0.73;;;;;;;;;;6016973;23;20168;-87
2024/04/03 03:01:00;;;;;;;1.20;0.80;;;;;;;;;;6040284;23;20169;-87
2024/04/03 03:03:29;;;;;;;1.73;0.90;;;;;;;;;;6040833;23;20161;-85
2024/04/03 03:05:56;;;;;;;1.30;0.80;;;;;;;;;;6040302;23;20197;-84
2024/04/03 03:08:22;;;;;;;2.53;0.70;;;;;;;;;;6040349;23;20169;-84
2024/04/03 03:10:48;;;;;;;1.67;0.90;;;;;;;;;;6040589;23;20617;-85
2024/04/03 03:13:15;;;;;;;0.80;0.77;;;;;;;;;;6041073;23;20247;-84
2024/04/03 03:15:59;;;;;;;2.00;0.97;;;;;;;;;;6041207;23;20161;-87
2024/04/03 03:18:29;;;;;;;1.23;0.83;;;;;;;;;;6040264;23;20165;-85
2024/04/03 03:20:56;;;;;;;1.70;0.70;;;;;;;;;;6016970;23;20177;-82
2024/04/03 03:23:22;;;;;;;1.20;0.80;;;;;;;;;;6016637;23;20200;-85
2024/04/03 03:25:51;;;;;;;1.37;0.87;;;;;;;;;;6016859;23;20273;-85
2024/04/03 03:28:18;;;;;;;1.63;0.70;;;;;;;;;;6016604;23;20181;-84
2024/04/03 03:30:48;;;;;;;0.73;0.70;;;;;;;;;;6016960;23;20162;-86
2024/04/03 03:33:14;;;;;;;0.80;0.60;;;;;;;;;;6040703;23;20196;-85
2024/04/03 03:35:41;;;;;;;2.47;0.97;;;;;;;;;;6040471;23;20643;-85
2024/04/03 03:38:06;;;;;;;1.90;0.93;;;;;;;;;;6040233;23;20236;-83
2024/04/03 03:40:33;;;;;;;0.97;0.63;;;;;;;;;;6016596;23;20177;-85
2024/04/03 03:42:59;;;;;;;1.30;0.90;;;;;;;;;;6039470;23;20173;-87
2024/04/03 03:45:25;;;;;;;1.30;0.60;;;;;;;;;;6016458;23;20217;-84
2024/04/03 03:47:52;;;;;;;0.80;0.70;;;;;;;;;;6040118;23;20196;-86
2024/04/03 03:53:03;;;;;;;0.93;0.70;;;;;;;;;;6040551;23;20196;-87
2024/04/03 03:55:30;;;;;;;1.90;1.00;;;;;;;;;;6040402;23;20169;-89
2024/04/03 03:57:59;;;;;;;0.87;0.70;;;;;;;;;;6064694;23;20161;-87
2024/04/03 04:00:31;;;;;;;2.63;0.80;;;;;;;;;;6064019;23;20173;-87
2024/04/03 04:02:59;;;;;;;1.90;0.80;;;;;;;;;;6017777;23;20183;-88
2024/04/03 04:05:25;;;;;;;0.90;0.70;;;;;;;;;;6016380;23;20205;-89
2024/04/03 04:07:53;;;;;;;1.27;0.70;;;;;;;;;;6063294;23;20175;-87
2024/04/03 04:10:23;;;;;;;1.10;0.70;;;;;;;;;;6063198;23;20252;-87
2024/04/03 04:12:49;;;;;;;1.13;0.70;;;;;;;;;;6015919;23;20179;-87
2024/04/03 04:15:16;;;;;;;1.10;0.60;;;;;;;;;;6039662;23;20169;-89
2024/04/03 04:17:42;;;;;;;1.57;0.70;;;;;;;;;;6063287;23;20255;-87
2024/04/03 04:20:12;;;;;;;1.00;0.80;;;;;;;;;;6063804;23;20169;-88
2024/04/03 04:22:40;;;;;;;0.80;0.60;;;;;;;;;;6064695;23;20196;-88
2024/04/03 04:25:07;;;;;;;1.03;0.80;;;;;;;;;;6017312;23;20244;-87
2024/04/03 04:27:33;;;;;;;0.87;0.60;;;;;;;;;;6064187;23;20176;-88
2024/04/03 04:29:59;;;;;;;1.00;0.60;;;;;;;;;;6040114;23;20185;-87
2024/04/03 04:32:27;;;;;;;2.13;0.70;;;;;;;;;;6016458;23;20169;-89
2024/04/03 04:34:55;;;;;;;0.77;0.63;;;;;;;;;;6063275;23;20261;-87
2024/04/03 04:37:22;;;;;;;0.97;0.63;;;;;;;;;;6040003;23;20247;-87
2024/04/03 04:39:49;;;;;;;1.73;0.70;;;;;;;;;;6017169;23;20165;-86
2024/04/03 04:42:16;;;;;;;1.83;1.00;;;;;;;;;;6039872;23;20259;-88
2024/04/03 04:44:42;;;;;;;0.83;0.80;;;;;;;;;;6016410;23;20172;-89
2024/04/03 04:47:09;;;;;;;3.93;0.70;;;;;;;;;;6039607;23;20193;-87
2024/04/03 04:49:35;;;;;;;1.03;0.60;;;;;;;;;;6064457;23;20165;-88
2024/04/03 04:52:04;;;;;;;1.90;0.83;;;;;;;;;;6039929;23;20224;-87
2024/04/03 04:54:32;;;;;;;1.03;0.80;;;;;;;;;;6040477;23;20176;-88
2024/04/03 04:57:01;;;;;;;1.23;0.80;;;;;;;;;;6016566;23;20251;-86
2024/04/03 04:59:31;;;;;;;1.83;0.70;;;;;;;;;;6063537;23;20170;-89
2024/04/03 05:01:57;;;;;;;1.67;0.80;;;;;;;;;;6063670;23;20172;-89
2024/04/03 05:04:23;;;;;;;1.20;0.63;;;;;;;;;;6016473;23;20534;-87
2024/04/03 05:06:50;;;;;;;1.30;0.77;;;;;;;;;;6039577;23;20280;-85
2024/04/03 05:09:19;;;;;;;1.33;0.93;;;;;;;;;;6016363;23;20204;-89
2024/04/03 05:11:47;;;;;;;1.77;0.83;;;;;;;;;;6017150;23;20192;-86
2024/04/03 05:14:14;;;;;;;2.63;0.90;;;;;;;;;;6040044;23;20178;-86
2024/04/03 05:16:42;;;;;;;1.40;0.83;;;;;;;;;;6039827;23;20211;-85
2024/04/03 05:19:08;;;;;;;1.93;0.90;;;;;;;;;;6040476;23;20177;-87
2024/04/03 05:21:35;;;;;;;2.00;0.93;;;;;;;;;;6016224;23;20184;-85
2024/04/03 05:24:05;;;;;;;2.37;1.03;;;;;;;;;;6064095;23;20173;-85
2024/04/03 05:26:31;;;;;;;2.27;1.00;;;;;;;;;;6040018;23;20197;-83
2024/04/03 05:28:58;;;;;;;1.50;1.10;;;;;;;;;;6063860;23;20181;-84
2024/04/03 05:31:24;;;;;;;1.30;1.10;;;;;;;;;;6063411;23;20271;-88
2024/04/03 05:33:55;;;;;;;1.27;0.90;;;;;;;;;;6063092;23;20246;-87
2024/04/03 05:36:22;;;;;;;1.67;0.83;;;;;;;;;;6039517;23;20646;-84
2024/04/03 05:38:51;;;;;;;1.17;1.00;;;;;;;;;;6039232;23;20180;-85
2024/04/03 05:41:17;;;;;;;2.00;0.80;;;;;;;;;;6015611;23;20228;-83
2024/04/03 05:43:42;;;;;;;1.50;0.93;;;;;;;;;;6039242;23;20161;-85
2024/04/03 05:46:09;;;;;;;1.40;0.83;;;;;;;;;;6062562;23;20217;-84
2024/04/03 05:48:39;;;;;;;1.50;0.70;;;;;;;;;;6016586;23;20169;-86
2024/04/03 05:51:06;;;;;;;0.90;0.70;;;;;;;;;;6062742;23;20185;-85
2024/04/03 05:53:33;;;;;;;1.53;0.70;;;;;;;;;;6015297;23;20166;-84
2024/04/03 05:56:00;;;;;;;1.90;0.77;;;;;;;;;;6062589;23;20181;-84
2024/04/03 05:58:27;;;;;;;1.57;0.83;;;;;;;;;;6062769;23;20305;-83
2024/04/03 06:00:54;;;;;;;2.13;0.83;;;;;;;;;;6015570;23;20185;-85
2024/04/03 06:03:20;;;;;;;3.57;0.70;;;;;;;;;;6062954;23;20172;-84
2024/04/03 06:05:53;;;;;;;2.23;0.83;;;;;;;;;;6063103;23;20231;-85
2024/04/03 06:08:20;;;;;;;2.27;1.00;;;;;;;;;;6040746;23;20248;-84
2024/04/03 06:10:46;;;;;;;5.73;1.07;;;;;;;;;;6040757;23;20263;-84
2024/04/03 06:13:13;;;;;;;5.33;1.23;;;;;;;;;;6017546;23;20566;-82
2024/04/03 06:15:39;;;;;;;4.97;0.97;;;;;;;;;;6040584;23;20719;-83
2024/04/03 06:18:09;;;;;;;2.33;0.97;;;;;;;;;;6017055;23;20173;-83
2024/04/03 06:20:35;;;;;;;1.63;1.00;;;;;;;;;;6064923;23;20177;-82
2024/04/03 06:23:02;;;;;;;2.63;0.90;;;;;;;;;;6064318;23;20200;-84
2024/04/03 06:25:28;;;;;;;1.67;0.97;;;;;;;;;;6040962;23;20197;-82
2024/04/03 06:27:54;;;;;;;1.57;0.70;;;;;;;;;;6017168;23;20268;-83
2024/04/03 06:30:21;;;;;;;1.10;0.80;;;;;;;;;;6064368;23;20169;-83
2024/04/03 06:32:48;;;;;;;1.17;0.80;;;;;;;;;;6064062;23;20696;-83
2024/04/03 06:35:15;;;;;;;1.87;0.90;;;;;;;;;;6040777;23;20165;-82
2024/04/03 06:37:41;;;;;;;1.57;0.80;;;;;;;;;;6063388;23;20197;-83
2024/04/03 06:40:11;;;;;;;2.50;0.83;;;;;;;;;;6040429;23;20196;-84
2024/04/03 06:42:40;;;;;;;1.20;1.10;;;;;;;;;;6064297;23;20189;-83
2024/04/03 06:45:06;;;;;;;1.97;0.93;;;;;;;;;;6064145;23;20220;-83
2024/04/03 06:47:39;;;;;;;1.27;1.07;;;;;;;;;;6064197;23;20209;-85
2024/04/03 06:50:08;;;;;;;2.60;1.30;;;;;;;;;;6018163;23;20165;-83
2024/04/03 06:52:34;;;;;;;2.20;1.20;;;;;;;;;;6063746;23;20173;-83
2024/04/03 06:55:00;;;;;;;2.83;1.10;;;;;;;;;;6040163;23;20232;-84
2024/04/03 06:57:26;;;;;;;2.40;1.20;;;;;;;;;;6063729;23;20240;-83
2024/04/03 06:59:53;;;;;;;1.27;1.00;;;;;;;;;;6064008;23;20251;-83
2024/04/03 07:02:22;;;;;;;2.70;0.90;;;;;;;;;;6016658;23;20173;-83
2024/04/03 07:04:48;;;;;;;2.27;1.03;;;;;;;;;;6064369;23;20173;-83
2024/04/03 07:07:13;;;;;;;2.33;1.07;;;;;;;;;;6064197;23;20165;-82
2024/04/03 07:09:39;;;;;;;2.40;1.10;;;;;;;;;;6064234;23;20203;-84
2024/04/03 07:12:06;;;;;;;2.43;1.20;;;;;;;;;;6063709;23;20276;-84
2024/04/03 07:14:32;;;;;;;1.67;0.90;;;;;;;;;;6064268;23;20624;-84
2024/04/03 07:16:58;;;;;;;1.70;1.00;;;;;;;;;;6016392;23;20185;-83
2024/04/03 07:19:26;;;;;;;2.03;1.10;;;;;;;;;;6063988;23;20165;-82
2024/04/03 07:21:53;;;;;;;1.63;0.97;;;;;;;;;;6062610;23;20173;-83
2024/04/03 07:24:19;;;;;;;3.87;1.00;;;;;;;;;;6013220;23;20624;-83
2024/04/03 07:26:46;;;;;;;5.03;1.40;;;;;;;;;;6037235;23;20285;-83
2024/04/03 07:29:14;;;;;;;3.90;1.00;;;;;;;;;;6062574;23;20174;-83
2024/04/03 07:31:41;;;;;;;2.13;1.10;;;;;;;;;;6039834;23;20181;-84
2024/04/03 07:34:07;;;;;;;2.97;1.33;;;;;;;;;;6039443;23;20174;-82
2024/04/03 07:36:33;;;;;;;1.97;1.03;;;;;;;;;;6039148;23;20673;-84
2024/04/03 07:38:59;;;;;;;3.00;1.07;;;;;;;;;;6016461;23;20242;-83
2024/04/03 07:41:31;;;;;;;2.10;1.00;;;;;;;;;;6063981;23;20180;-83
2024/04/03 07:43:59;;;;;;;1.40;0.87;;;;;;;;;;6039615;23;20191;-83
2024/04/03 07:46:26;;;;;;;2.20;1.00;;;;;;;;;;6015966;23;20187;-82
2024/04/03 07:48:53;;;;;;;2.23;1.00;;;;;;;;;;6063195;23;20185;-82
2024/04/03 07:51:19;;;;;;;2.17;1.03;;;;;;;;;;6015916;23;20259;-83
2024/04/03 07:53:47;;;;;;;1.23;0.87;;;;;;;;;;6063468;23;20176;-83
2024/04/03 07:56:13;;;;;;;1.87;0.70;;;;;;;;;;6015762;23;20183;-82
2024/04/03 07:58:42;;;;;;;1.13;0.60;;;;;;;;;;6063768;23;20249;-82
2024/04/03 08:01:08;;;;;;;1.37;0.77;;;;;;;;;;6039471;23;20199;-82
2024/04/03 08:03:37;;;;;;;3.67;0.60;;;;;;;;;;6063195;23;20185;-82
2024/04/03 08:06:05;;;;;;;0.87;0.50;;;;;;;;;;6039338;23;20227;-82
2024/04/03 08:08:32;;;;;;;0.93;0.50;;;;;;;;;;6039436;23;20173;-82
2024/04/03 08:11:01;;;;;;;0.50;0.40;;;;;;;;;;6016621;23;20194;-82
2024/04/03 08:13:31;;;;;;;1.43;0.60;;;;;;;;;;6016960;23;20208;-82
2024/04/03 08:16:01;;;;;;;0.87;0.33;;;;;;;;;;6039318;23;20173;-82
2024/04/03 08:18:32;;;;;;;3.23;0.70;;;;;;;;;;6040043;23;20172;-83
2024/04/03 08:21:06;;;;;;;1.63;0.50;;;;;;;;;;6039400;23;20181;-82
2024/04/03 08:23:36;;;;;;;1.20;0.50;;;;;;;;;;6063331;23;20157;-82
2024/04/03 08:26:06;;;;;;;0.83;0.30;;;;;;;;;;6039762;23;20193;-81
2024/04/03 08:28:39;;;;;;;0.40;0.30;;;;;;;;;;6038913;23;20173;-82
2024/04/03 08:31:13;;;;;;;0.80;0.50;;;;;;;;;;6062503;23;20166;-81
2024/04/03 08:33:41;;;;;;;1.00;0.50;;;;;;;;;;6038918;23;20169;-82
2024/04/03 08:36:08;;;;;;;1.40;0.50;;;;;;;;;;6019888;23;20196;-81
2024/04/03 08:38:34;;;;;;;0.83;0.40;;;;;;;;;;6020070;23;20156;-82
2024/04/03 08:41:00;;;;;;;0.30;0.30;;;;;;;;;;6020259;23;20172;-83
2024/04/03 08:43:27;;;;;;;0.97;0.53;;;;;;;;;;6019905;23;20172;-82
2024/04/03 08:45:55;;;;;;;0.70;0.50;;;;;;;;;;6067271;23;20197;-82
2024/04/03 08:48:22;;;;;;;1.17;0.50;;;;;;;;;;6018424;23;20192;-82
2024/04/03 08:50:52;;;;;;;0.67;0.30;;;;;;;;;;6019982;23;20265;-83
2024/04/03 08:53:20;;;;;;;3.17;1.47;;;;;;;;;;6019506;23;20200;-82
2024/04/03 08:55:48;;;;;;;2.53;0.60;;;;;;;;;;6043329;23;20196;-83
2024/04/03 08:58:17;;;;;;;0.77;0.50;;;;;;;;;;6043057;23;20192;-81
2024/04/03 09:00:44;;;;;;;0.83;0.50;;;;;;;;;;6019935;23;20179;-82
2024/04/03 09:03:14;;;;;;;0.90;0.40;;;;;;;;;;6043009;23;20255;-82
2024/04/03 09:05:40;;;;;;;0.60;0.40;;;;;;;;;;6018102;23;20257;-82
2024/04/03 09:08:08;;;;;;;1.03;0.50;;;;;;;;;;6039687;23;20229;-82
2024/04/03 09:10:46;;;;;;;0.93;0.40;;;;;;;;;;6017543;23;20178;-81
2024/04/03 09:13:14;;;;;;;0.80;0.60;;;;;;;;;;6042701;23;20167;-82
2024/04/03 09:15:44;;;;;;;0.80;0.50;;;;;;;;;;6043767;23;20170;-80
2024/04/03 09:18:10;;;;;;;1.73;0.50;;;;;;;;;;6066655;23;20181;-83
2024/04/03 09:20:40;;;;;;;1.20;0.40;;;;;;;;;;6043287;23;20256;-82
2024/04/03 09:23:08;;;;;;;0.73;0.40;;;;;;;;;;6043195;23;20160;-81
2024/04/03 09:25:38;;;;;;;0.47;0.40;;;;;;;;;;6067576;23;20187;-82
2024/04/03 09:28:04;;;;;;;0.53;0.47;;;;;;;;;;6042904;23;20179;-81
2024/04/03 09:30:30;;;;;;;0.40;0.40;;;;;;;;;;6067309;23;20220;-82
2024/04/03 09:32:57;;;;;;;0.40;0.40;;;;;;;;;;6019376;23;20224;-84
2024/04/03 09:35:28;;;;;;;0.50;0.47;;;;;;;;;;6067119;23;20251;-83
2024/04/03 09:37:57;;;;;;;0.97;0.33;;;;;;;;;;6043019;23;20235;-82
2024/04/03 09:40:30;;;;;;;1.00;0.43;;;;;;;;;;6067024;23;20195;-82
2024/04/03 09:43:02;;;;;;;0.57;0.40;;;;;;;;;;6044310;23;20165;-81
2024/04/03 09:45:29;;;;;;;0.60;0.37;;;;;;;;;;6045394;23;20192;-82
2024/04/03 09:48:02;;;;;;;1.27;0.50;;;;;;;;;;6069072;23;20666;-82
2024/04/03 09:50:35;;;;;;;0.50;0.47;;;;;;;;;;6021393;23;20648;-82
2024/04/03 09:53:04;;;;;;;0.70;0.40;;;;;;;;;;6021027;23;20635;-81
2024/04/03 09:55:31;;;;;;;0.60;0.30;;;;;;;;;;6045112;23;20173;-81
2024/04/03 09:58:01;;;;;;;1.93;0.53;;;;;;;;;;6068686;23;20257;-81
2024/04/03 10:00:28;;;;;;;0.30;0.30;;;;;;;;;;6045156;23;20666;-82
2024/04/03 10:02:55;;;;;;;0.77;0.33;;;;;;;;;;6044802;23;20171;-81
2024/04/03 10:05:31;;;;;;;0.53;0.30;;;;;;;;;;6020988;23;20678;-82
2024/04/03 10:08:02;;;;;;;1.20;0.40;;;;;;;;;;6021480;23;20235;-82
2024/04/03 10:10:29;;;;;;;0.40;0.30;;;;;;;;;;6044794;23;20439;-81
2024/04/03 10:12:58;;;;;;;0.50;0.40;;;;;;;;;;5997305;23;20263;-80
2024/04/03 10:15:24;;;;;;;1.10;0.60;;;;;;;;;;6044687;23;20168;-82
2024/04/03 10:17:50;;;;;;;1.30;0.93;;;;;;;;;;6020601;23;20196;-81
2024/04/03 10:20:34;;;;;;;0.63;0.45;;;;;;;;;;6068291;23;20780;-81
2024/04/03 10:23:04;;;;;;;2.43;1.10;;;;;;;;;;6067948;23;20168;-81
2024/04/03 10:25:30;;;;;;;4.65;2.33;;;;;;;;;;6020212;23;20196;-84
2024/04/03 10:27:57;;;;;;;1.25;0.90;;;;;;;;;;6020362;23;20175;-81
2024/04/03 10:30:23;;;;;;;0.98;0.50;;;;;;;;;;6044770;23;20189;-80
2024/04/03 10:32:53;;;;;;;0.40;0.40;;;;;;;;;;6067990;23;20180;-81
2024/04/03 10:35:21;;;;;;;1.70;0.80;;;;;;;;;;6020785;23;20168;-81
2024/04/03 10:37:47;;;;;;;0.60;0.50;;;;;;;;;;6020224;23;20374;-81
2024/04/03 10:40:17;;;;;;;0.60;0.35;;;;;;;;;;6044702;23;20179;-81
2024/04/03 10:42:48;;;;;;;0.77;0.40;;;;;;;;;;6067893;23;20257;-81
2024/04/03 10:45:16;;;;;;;0.63;0.50;;;;;;;;;;6067790;23;20215;-81
2024/04/03 10:47:43;;;;;;;0.30;0.30;;;;;;;;;;6043827;23;20272;-81
2024/04/03 10:50:12;;;;;;;0.50;0.40;;;;;;;;;;6044227;23;20173;-80
2024/04/03 10:52:44;;;;;;;1.95;0.50;;;;;;;;;;6043440;23;20172;-80
2024/04/03 10:55:12;;;;;;;0.70;0.60;;;;;;;;;;6067313;23;20180;-81
2024/04/03 10:57:41;;;;;;;0.63;0.40;;;;;;;;;;6019668;23;20257;-81
2024/04/03 11:00:12;;;;;;;0.30;0.30;;;;;;;;;;6042596;23;20173;-80
2024/04/03 11:02:44;;;;;;;0.40;0.40;;;;;;;;;;6043533;23;20163;-81
2024/04/03 11:05:17;;;;;;;1.10;0.40;;;;;;;;;;6016986;23;20188;-80
2024/04/03 11:07:45;;;;;;;0.47;0.40;;;;;;;;;;6019966;23;20195;-80
2024/04/03 11:10:14;;;;;;;0.50;0.38;;;;;;;;;;6021468;23;20280;-81
2024/04/03 11:12:41;;;;;;;0.32;0.32;;;;;;;;;;6043743;23;20176;-80
2024/04/03 11:15:09;;;;;;;0.60;0.40;;;;;;;;;;6043882;23;20178;-80
2024/04/03 11:17:35;;;;;;;0.32;0.30;;;;;;;;;;6067682;23;20172;-80
2024/04/03 11:20:02;;;;;;;0.40;0.30;;;;;;;;;;6043768;23;20264;-80
2024/04/03 11:22:29;;;;;;;0.40;0.40;;;;;;;;;;6043878;23;20165;-80
2024/04/03 11:25:00;;;;;;;0.65;0.38;;;;;;;;;;6067159;23;20176;-80
2024/04/03 11:27:26;;;;;;;0.43;0.38;;;;;;;;;;6019594;23;20231;-79
2024/04/03 11:30:04;;;;;;;1.17;0.30;;;;;;;;;;6066684;23;20171;-80
2024/04/03 11:32:32;;;;;;;0.75;0.50;;;;;;;;;;6020623;23;20211;-81
2024/04/03 11:34:58;;;;;;;1.05;0.30;;;;;;;;;;6067308;23;20169;-81
2024/04/03 11:37:24;;;;;;;0.40;0.40;;;;;;;;;;6019854;23;20243;-81
2024/04/03 11:39:50;;;;;;;1.85;0.40;;;;;;;;;;6044086;23;20237;-80
2024/04/03 11:42:16;;;;;;;0.40;0.32;;;;;;;;;;6067366;23;20203;-80
2024/04/03 11:44:43;;;;;;;0.50;0.40;;;;;;;;;;6020122;23;20197;-81
2024/04/03 11:47:10;;;;;;;0.75;0.47;;;;;;;;;;6019594;23;20212;-80
2024/04/03 11:49:42;;;;;;;0.40;0.40;;;;;;;;;;6043575;23;20184;-81
2024/04/03 11:52:09;;;;;;;0.30;0.30;;;;;;;;;;6020063;23;20180;-81
2024/04/03 11:54:35;;;;;;;1.75;0.38;;;;;;;;;;6043508;23;20203;-81
2024/04/03 11:57:04;;;;;;;0.38;0.35;;;;;;;;;;6043209;23;20192;-80
2024/04/03 11:59:30;;;;;;;1.45;0.40;;;;;;;;;;6043606;23;20240;-79
2024/04/03 12:01:57;;;;;;;0.60;0.32;;;;;;;;;;6043664;23;20183;-80
2024/04/03 12:04:25;;;;;;;1.05;0.40;;;;;;;;;;6019591;23;20257;-80
2024/04/03 12:06:51;;;;;;;1.08;0.40;;;;;;;;;;6066876;23;20638;-80
2024/04/03 12:09:19;;;;;;;1.38;0.60;;;;;;;;;;6019430;23;20256;-80
2024/04/03 12:11:46;;;;;;;0.70;0.40;;;;;;;;;;6019611;23;20747;-79
2024/04/03 12:14:12;;;;;;;1.10;0.50;;;;;;;;;;6042864;23;20196;-80
2024/04/03 12:16:38;;;;;;;0.93;0.30;;;;;;;;;;6067171;23;20176;-80
2024/04/03 12:19:15;;;;;;;0.73;0.40;;;;;;;;;;6066577;23;20645;-80
2024/04/03 12:21:42;;;;;;;0.40;0.40;;;;;;;;;;6019564;23;20857;-81
2024/04/03 12:24:09;;;;;;;0.90;0.50;;;;;;;;;;6066511;23;20195;-81
2024/04/03 12:26:35;;;;;;;2.58;0.57;;;;;;;;;;6019388;23;20292;-80
2024/04/03 12:29:01;;;;;;;1.00;0.50;;;;;;;;;;6042449;23;20164;-80
2024/04/03 12:31:27;;;;;;;3.17;0.50;;;;;;;;;;6066510;23;20230;-81
2024/04/03 12:33:57;;;;;;;0.57;0.50;;;;;;;;;;6042058;23;20639;-80
2024/04/03 12:36:23;;;;;;;3.10;0.52;;;;;;;;;;6061401;23;20197;-81
2024/04/03 12:38:49;;;;;;;1.52;0.60;;;;;;;;;;6011678;23;20161;-80
2024/04/03 12:41:18;;;;;;;0.73;0.50;;;;;;;;;;6060357;23;20505;-80
2024/04/03 12:43:45;;;;;;;2.15;0.50;;;;;;;;;;6061033;23;20192;-80
2024/04/03 12:46:14;;;;;;;0.70;0.40;;;;;;;;;;6061915;23;20711;-80
2024/04/03 12:48:40;;;;;;;1.75;0.50;;;;;;;;;;6014120;23;20234;-81
2024/04/03 12:51:06;;;;;;;0.80;0.40;;;;;;;;;;6014586;23;20216;-80
2024/04/03 12:53:32;;;;;;;0.70;0.50;;;;;;;;;;6037469;23;20169;-81
2024/04/03 12:56:01;;;;;;;4.03;0.60;;;;;;;;;;6014485;23;20169;-80
2024/04/03 12:58:28;;;;;;;1.95;0.50;;;;;;;;;;6084582;23;20694;-80
2024/04/03 13:00:54;;;;;;;0.60;0.50;;;;;;;;;;6037236;23;20643;-80
2024/04/03 13:03:20;;;;;;;1.25;0.50;;;;;;;;;;6061384;23;20172;-80
2024/04/03 13:05:49;;;;;;;3.55;0.80;;;;;;;;;;6061814;23;20200;-81
2024/04/03 13:08:19;;;;;;;0.65;0.60;;;;;;;;;;6037799;23;20173;-82
2024/04/03 13:10:47;;;;;;;0.90;0.60;;;;;;;;;;6035411;23;20177;-81
2024/04/03 13:13:13;;;;;;;1.55;0.50;;;;;;;;;;6037429;23;20169;-81
2024/04/03 13:15:39;;;;;;;1.65;0.50;;;;;;;;;;6061544;23;20211;-80
2024/04/03 13:18:06;;;;;;;2.08;0.60;;;;;;;;;;6061688;23;20204;-80
2024/04/03 13:20:35;;;;;;;1.33;0.70;;;;;;;;;;6012008;23;20173;-82
2024/04/03 13:23:02;;;;;;;0.85;0.50;;;;;;;;;;6061571;23;20173;-80
2024/04/03 13:25:30;;;;;;;1.38;0.60;;;;;;;;;;6036810;23;20197;-80
2024/04/03 13:27:57;;;;;;;1.75;0.60;;;;;;;;;;6014627;23;20697;-81
2024/04/03 13:30:23;;;;;;;1.52;0.47;;;;;;;;;;6036812;23;20197;-81
2024/04/03 13:32:50;;;;;;;0.65;0.55;;;;;;;;;;6038164;23;20652;-80
2024/04/03 13:35:19;;;;;;;0.40;0.40;;;;;;;;;;6061896;23;20169;-82
2024/04/03 13:37:47;;;;;;;0.90;0.50;;;;;;;;;;6037025;23;20209;-80
2024/04/03 13:40:13;;;;;;;0.93;0.35;;;;;;;;;;6037713;23;20226;-81
2024/04/03 13:42:39;;;;;;;0.50;0.50;;;;;;;;;;6038081;23;20308;-82
2024/04/03 13:45:06;;;;;;;2.85;0.70;;;;;;;;;;6061919;23;20259;-82
2024/04/03 13:47:33;;;;;;;1.52;0.45;;;;;;;;;;6061521;23;20192;-81
2024/04/03 13:50:00;;;;;;;0.50;0.50;;;;;;;;;;6061900;23;20210;-81
2024/04/03 13:52:30;;;;;;;0.55;0.55;;;;;;;;;;6062669;23;20244;-82
2024/04/03 13:54:58;;;;;;;1.30;0.60;;;;;;;;;;6038146;23;20658;-80
2024/04/03 13:57:27;;;;;;;0.90;0.57;;;;;;;;;;6037329;23;20177;-80
2024/04/03 13:59:55;;;;;;;1.13;0.53;;;;;;;;;;6037396;23;20653;-80
2024/04/03 14:02:22;;;;;;;2.00;0.50;;;;;;;;;;6061539;23;20247;-81
2024/04/03 14:04:48;;;;;;;0.73;0.40;;;;;;;;;;6013858;23;20177;-81
2024/04/03 14:07:17;;;;;;;2.33;0.67;;;;;;;;;;6014536;23;20196;-81
2024/04/03 14:09:44;;;;;;;1.30;0.60;;;;;;;;;;6037215;23;20174;-82
2024/04/03 14:12:11;;;;;;;1.53;0.50;;;;;;;;;;6061842;23;20250;-82
2024/04/03 14:14:37;;;;;;;0.60;0.50;;;;;;;;;;6037401;23;20183;-81
2024/04/03 14:17:04;;;;;;;1.03;0.63;;;;;;;;;;6037951;23;20623;-81
2024/04/03 14:19:29;;;;;;;1.67;0.70;;;;;;;;;;6013952;23;20263;-81
2024/04/03 14:21:55;;;;;;;0.87;0.70;;;;;;;;;;6038038;23;20237;-80
2024/04/03 14:24:21;;;;;;;1.67;0.60;;;;;;;;;;6036168;23;20178;-82
2024/04/03 14:26:48;;;;;;;0.63;0.60;;;;;;;;;;6059627;23;20189;-81
2024/04/03 14:29:16;;;;;;;0.50;0.50;;;;;;;;;;6036604;23;20654;-81
2024/04/03 14:31:43;;;;;;;0.50;0.50;;;;;;;;;;6039329;23;20171;-81
2024/04/03 14:34:11;;;;;;;0.73;0.73;;;;;;;;;;6063290;23;20176;-81
2024/04/03 14:36:39;;;;;;;0.70;0.67;;;;;;;;;;6038461;23;20240;-81
2024/04/03 14:39:06;;;;;;;1.20;0.80;;;;;;;;;;6015916;23;20263;-82
2024/04/03 14:41:32;;;;;;;1.50;0.80;;;;;;;;;;6063319;23;20252;-81
2024/04/03 14:43:58;;;;;;;0.80;0.67;;;;;;;;;;6015662;23;20257;-81
2024/04/03 14:46:25;;;;;;;2.70;0.80;;;;;;;;;;6063228;23;20255;-82
2024/04/03 14:48:51;;;;;;;1.43;0.70;;;;;;;;;;6039116;23;20183;-81